メインページ
METAR-TAF:

METAR-TAF

空港 :

Fort St. John, ブリティッシュコロンビア州, カナダ

緯度: 56-14N, 経度: 120-44W, 海抜: 695m

現時点の気象観測

当レポートは46分前の04:00(UTC)に作成
の風 8kt
気温 17°C
湿度 32%
気圧 1015 hPa
視程: 96.5km
高度11000ftの雲は散在している
高度23000ftの千切れ雲あり

METAR: CYXJ 220400Z 36008KT 60SM SCT110 BKN230 17/00 A2997 RMK AC4CI1 SLP160 DENSITY ALT 3000FT

時間: 21:46 (04:46 UTC)

予報

当レポートは4時間8分前の00:38(UTC)に作成
予報は22日の 01時(UTC)から 22日の 13時(UTC)まで有効
南東の風 10kt、最大20ktの突風を伴う
視程: 10km
高度8000ftの雲は散在している
22日の 01時(UTC)から 22日の 13時(UTC)まで一時的に
高度8000ftの千切れ雲あり
22日の 03時(UTC)から 22日の 05時(UTC)まで徐々に
東/北東の風 8kt

TAF: CYXJ 220038Z 2201/2213 13010G20KT P6SM SCT080 TEMPO 2201/2213 BKN080 BECMG 2203/2205 07008KT RMK NXT FCST BY 220700Z

4,000以上の空港の気象観測と天気予報(METAR報とTAF報)

利用可能な観測所は地図上に黄色い丸と赤い丸で示す。

丸の上にカーソルを重ねると観測所名を参照できる。

次にクリックすると気象観測と天気予報を参照できる。

マップの切り替え:黒色「×」印の緑ボタンをクリックして拡大、「-」印の緑ボタンをクリックして縮小、緑色の三角印をクリックして隣りの地図に切り替え


METAR-TAF: